createdAt,value
2022-10-07T00:01:06.657Z,98721.03
2022-10-07T00:03:34.937Z,98721.03
2022-10-07T00:06:16.763Z,98721.03
2022-10-07T00:08:46.874Z,98721.03
2022-10-07T00:11:23.933Z,98980.75
2022-10-07T00:14:00.355Z,98721.03
2022-10-07T00:16:30.716Z,98461.34
2022-10-07T00:19:01.020Z,98201.69
2022-10-07T00:21:31.366Z,98201.69
2022-10-07T00:23:59.958Z,98201.69
2022-10-07T00:26:31.500Z,98201.69
2022-10-07T00:28:59.106Z,98461.34
2022-10-07T00:31:31.207Z,98201.69
2022-10-07T00:33:59.505Z,98201.69
2022-10-07T00:36:29.667Z,98201.69
2022-10-07T00:39:05.626Z,98201.69
2022-10-07T00:41:52.198Z,98201.69
2022-10-07T00:44:31.814Z,98461.34
2022-10-07T00:47:23.292Z,98461.34
2022-10-07T00:50:17.321Z,98461.34
2022-10-07T00:52:52.048Z,98461.34
2022-10-07T00:55:23.666Z,98461.34
2022-10-07T00:57:54.849Z,98461.34
2022-10-07T01:00:24.270Z,98461.34
2022-10-07T01:02:54.376Z,98461.34
2022-10-07T01:05:21.984Z,98461.34
2022-10-07T01:07:50.990Z,98461.34
2022-10-07T01:10:22.979Z,98461.34
2022-10-07T01:13:00.601Z,98461.34
2022-10-07T01:15:36.748Z,98461.34
2022-10-07T01:18:09.792Z,98461.34
2022-10-07T01:20:52.144Z,98461.34
2022-10-07T01:23:39.036Z,98201.69
2022-10-07T01:26:31.519Z,98201.69
2022-10-07T01:29:01.718Z,98461.34
2022-10-07T01:31:38.242Z,98461.34
2022-10-07T01:34:07.762Z,98201.69
2022-10-07T01:36:37.581Z,98201.69
2022-10-07T01:39:10.679Z,98201.69
2022-10-07T01:41:41.601Z,98201.69
2022-10-07T01:44:11.991Z,98201.69
2022-10-07T01:46:39.523Z,98461.34
2022-10-07T01:49:09.584Z,98461.34
2022-10-07T01:51:44.132Z,98721.03
2022-10-07T01:54:41.933Z,98461.34
2022-10-07T01:57:29.750Z,98461.34
2022-10-07T02:00:12.071Z,98461.34
2022-10-07T02:02:51.961Z,98461.34
2022-10-07T02:05:40.258Z,98461.34
2022-10-07T02:08:33.847Z,98461.34
2022-10-07T02:11:13.653Z,98201.69
2022-10-07T02:14:01.385Z,98201.69
2022-10-07T02:16:47.883Z,98201.69
2022-10-07T02:19:28.045Z,98461.34
2022-10-07T02:21:57.624Z,98461.34
2022-10-07T02:24:30.724Z,98721.03
2022-10-07T02:27:01.862Z,98721.03
2022-10-07T02:29:35.873Z,98461.34
2022-10-07T02:32:08.772Z,98461.34
2022-10-07T02:34:37.431Z,98461.34
2022-10-07T02:37:26.503Z,98201.69
2022-10-07T02:39:57.050Z,98201.69
2022-10-07T02:42:33.673Z,98201.69
2022-10-07T02:45:07.995Z,97942.03
2022-10-07T02:47:53.454Z,98201.69
2022-10-07T02:50:26.249Z,98980.75
2022-10-07T02:53:01.162Z,98461.34
2022-10-07T02:55:31.270Z,98201.69
2022-10-07T02:58:02.332Z,98461.34
2022-10-07T03:00:34.838Z,98461.34
2022-10-07T03:03:05.079Z,98980.75
2022-10-07T03:05:45.093Z,99240.47
2022-10-07T03:08:16.544Z,98721.03
2022-10-07T03:10:46.991Z,98461.34
2022-10-07T03:13:16.402Z,98201.69
2022-10-07T03:15:48.749Z,98201.69
2022-10-07T03:18:29.185Z,98201.69
2022-10-07T03:21:29.063Z,97942.03
2022-10-07T03:24:05.891Z,97682.41
2022-10-07T03:30:29.607Z,97682.41
2022-10-07T03:32:57.976Z,97422.78
2022-10-07T03:35:25.521Z,97422.78
2022-10-07T03:37:55.952Z,97163.19
2022-10-07T03:40:25.918Z,97163.19
2022-10-07T03:42:55.106Z,96903.63
2022-10-07T03:45:24.261Z,97163.19
2022-10-07T03:47:51.703Z,97422.78
2022-10-07T03:50:21.896Z,96903.63
2022-10-07T03:52:55.134Z,96903.63
2022-10-07T03:56:04.130Z,97422.78
2022-10-07T03:58:39.368Z,97422.78
2022-10-07T04:01:12.165Z,97682.41
2022-10-07T04:03:46.243Z,97422.78
2022-10-07T04:06:16.531Z,97163.19
2022-10-07T04:08:44.936Z,96644.06
2022-10-07T04:11:13.550Z,96384.53
2022-10-07T04:13:45.923Z,96125.00
2022-10-07T04:16:13.994Z,95865.50
2022-10-07T04:18:42.722Z,95346.59
2022-10-07T04:21:11.226Z,95087.13
2022-10-07T04:23:41.209Z,94568.31
2022-10-07T04:26:10.905Z,94308.94
2022-10-07T04:28:42.722Z,94568.31
2022-10-07T04:31:17.898Z,94049.59
2022-10-07T04:33:47.987Z,93530.91
2022-10-07T04:36:21.178Z,93012.34
2022-10-07T04:38:54.132Z,92753.06
2022-10-07T04:41:26.352Z,92493.81
2022-10-07T04:43:57.688Z,92234.59
2022-10-07T04:46:28.576Z,91975.41
2022-10-07T04:49:05.212Z,91716.22
2022-10-07T04:51:33.032Z,91197.91
2022-10-07T04:54:03.300Z,90938.78
2022-10-07T04:56:40.177Z,90420.56
2022-10-07T04:59:11.995Z,89902.44
2022-10-07T05:01:40.272Z,89643.41
2022-10-07T05:04:10.638Z,89384.41
2022-10-07T05:06:38.271Z,89125.41
2022-10-07T05:09:06.252Z,88607.50
2022-10-07T05:11:37.917Z,88348.56
2022-10-07T05:14:10.700Z,88089.66
2022-10-07T05:16:38.409Z,87830.75
2022-10-07T05:19:06.307Z,87571.88
2022-10-07T05:21:33.865Z,87054.19
2022-10-07T05:24:02.525Z,87054.19
2022-10-07T05:26:35.372Z,86795.38
2022-10-07T05:29:04.546Z,86795.38
2022-10-07T05:31:38.367Z,86536.56
2022-10-07T05:34:08.107Z,86277.78
2022-10-07T05:36:36.233Z,85501.56
2022-10-07T05:39:05.902Z,85242.88
2022-10-07T05:41:55.730Z,85242.88
2022-10-07T05:44:27.723Z,85242.88
2022-10-07T05:46:58.350Z,85242.88
2022-10-07T05:49:27.847Z,84984.19
2022-10-07T05:51:56.136Z,85242.88
2022-10-07T05:54:24.596Z,85501.56
2022-10-07T05:56:54.033Z,85501.56
2022-10-07T05:59:22.343Z,85242.88
2022-10-07T06:01:50.310Z,85242.88
2022-10-07T06:04:21.535Z,85242.88
2022-10-07T06:06:50.818Z,84984.19
2022-10-07T06:09:36.952Z,84725.53
2022-10-07T06:12:29.391Z,84725.53
2022-10-07T06:14:59.408Z,84725.53
2022-10-07T06:17:29.200Z,84725.53
2022-10-07T06:19:59.264Z,84725.53
2022-10-07T06:22:27.410Z,84466.88
2022-10-07T06:24:58.832Z,84208.25
2022-10-07T06:27:26.666Z,84466.88
2022-10-07T06:29:55.310Z,84208.25
2022-10-07T06:32:22.870Z,84466.88
2022-10-07T06:34:50.618Z,84466.88
2022-10-07T06:37:20.194Z,84208.25
2022-10-07T06:39:47.510Z,84208.25
2022-10-07T06:42:15.137Z,84208.25
2022-10-07T06:45:07.615Z,84466.88
2022-10-07T06:47:35.909Z,84466.88
2022-10-07T06:50:06.025Z,84466.88
2022-10-07T06:52:37.932Z,84208.25
2022-10-07T06:55:08.964Z,84208.25
2022-10-07T06:57:56.074Z,84208.25
2022-10-07T07:00:24.323Z,83949.66
2022-10-07T07:02:53.930Z,83691.06
2022-10-07T07:05:22.926Z,83949.66
2022-10-07T07:07:53.256Z,83949.66
2022-10-07T07:10:20.810Z,83691.06
2022-10-07T07:12:54.045Z,83949.66
2022-10-07T07:15:22.155Z,83691.06
2022-10-07T07:17:49.856Z,83691.06
2022-10-07T07:20:17.355Z,83691.06
2022-10-07T07:22:44.866Z,83691.06
2022-10-07T07:25:12.411Z,83949.66
2022-10-07T07:27:40.368Z,83949.66
2022-10-07T07:30:10.584Z,83691.06
2022-10-07T07:32:38.193Z,83691.06
2022-10-07T07:35:07.795Z,83432.50
2022-10-07T07:37:36.144Z,83432.50
2022-10-07T07:40:04.070Z,83432.50
2022-10-07T07:42:33.348Z,84208.25
2022-10-07T07:45:00.987Z,84466.88
2022-10-07T07:47:28.646Z,84466.88
2022-10-07T07:49:56.798Z,84466.88
2022-10-07T07:52:31.120Z,84466.88
2022-10-07T07:55:02.638Z,84466.88
2022-10-07T07:57:31.108Z,84725.53
2022-10-07T08:00:02.417Z,84984.19
2022-10-07T08:02:30.260Z,85242.88
2022-10-07T08:04:58.143Z,85242.88
2022-10-07T08:07:26.929Z,84984.19
2022-10-07T08:09:55.279Z,85242.88
2022-10-07T08:12:24.608Z,84984.19
2022-10-07T08:14:54.149Z,85242.88
2022-10-07T08:17:22.254Z,85501.56
2022-10-07T08:19:51.187Z,85501.56
2022-10-07T08:22:19.423Z,86019.03
2022-10-07T08:24:50.548Z,86277.78
2022-10-07T08:27:20.459Z,86277.78
2022-10-07T08:29:47.931Z,86536.56
2022-10-07T08:32:15.378Z,86795.38
2022-10-07T08:34:42.761Z,86536.56
2022-10-07T08:37:11.177Z,86536.56
2022-10-07T08:39:38.669Z,87054.19
2022-10-07T08:42:32.627Z,87313.03
2022-10-07T08:45:00.822Z,87830.75
2022-10-07T08:47:28.884Z,88348.56
2022-10-07T08:50:25.751Z,88866.44
2022-10-07T08:53:04.237Z,89125.41
2022-10-07T08:55:41.022Z,89384.41
2022-10-07T08:58:51.904Z,89125.41
2022-10-07T09:01:34.439Z,89643.41
2022-10-07T09:04:15.652Z,89902.44
2022-10-07T09:06:50.316Z,90161.50
2022-10-07T09:09:28.822Z,90679.66
2022-10-07T09:12:00.576Z,90679.66
2022-10-07T09:14:40.223Z,90420.56
2022-10-07T09:17:18.699Z,90420.56
2022-10-07T09:19:55.732Z,90420.56
2022-10-07T09:22:53.408Z,90420.56
2022-10-07T09:25:27.981Z,90938.78
2022-10-07T09:27:55.441Z,90938.78
2022-10-07T09:30:25.115Z,91197.91
2022-10-07T09:32:55.168Z,91197.91
2022-10-07T09:35:25.686Z,91716.22
2022-10-07T09:38:01.071Z,91975.41
2022-10-07T09:40:35.909Z,92234.59
2022-10-07T09:43:14.119Z,92234.59
2022-10-07T09:45:47.071Z,92493.81
2022-10-07T09:48:21.940Z,92493.81
2022-10-07T09:50:49.683Z,91716.22
2022-10-07T09:53:21.691Z,91716.22
2022-10-07T09:55:52.653Z,91975.41
2022-10-07T09:58:28.889Z,91716.22
2022-10-07T10:01:01.322Z,91716.22
2022-10-07T10:03:31.192Z,91457.03
2022-10-07T10:06:07.307Z,90679.66
2022-10-07T10:08:44.774Z,90161.50
2022-10-07T10:11:18.403Z,89902.44
2022-10-07T10:13:49.513Z,89643.41
2022-10-07T10:16:26.265Z,89902.44
2022-10-07T10:18:59.107Z,89902.44
2022-10-07T10:21:35.813Z,90161.50
2022-10-07T10:24:06.606Z,91716.22
2022-10-07T10:26:47.915Z,95087.13
2022-10-07T10:29:40.400Z,95606.03
2022-10-07T10:32:26.046Z,95346.59
2022-10-07T10:35:02.941Z,95865.50
2022-10-07T10:37:49.222Z,95865.50
2022-10-07T10:40:23.304Z,97163.19
2022-10-07T10:43:07.090Z,99500.22
2022-10-07T10:45:44.171Z,101319.00
2022-10-07T10:49:10.801Z,102878.72
2022-10-07T10:52:04.203Z,102878.72
2022-10-07T10:54:50.490Z,102878.72
2022-10-07T10:57:36.417Z,102878.72
2022-10-07T11:00:23.483Z,102618.72
2022-10-07T11:02:59.716Z,102358.75
2022-10-07T11:05:40.193Z,101838.84
2022-10-07T11:08:18.505Z,101578.91
2022-10-07T11:10:52.815Z,101319.00
2022-10-07T11:13:44.080Z,100799.25
2022-10-07T11:16:38.490Z,100799.25
2022-10-07T11:19:19.056Z,101059.13
2022-10-07T11:21:49.451Z,101319.00
2022-10-07T11:24:41.291Z,100799.25
2022-10-07T11:27:31.056Z,100539.41
2022-10-07T11:30:08.462Z,100279.59
2022-10-07T11:33:01.196Z,100019.78
2022-10-07T11:35:47.613Z,99500.22
2022-10-07T11:38:21.960Z,100019.78
2022-10-07T11:41:19.957Z,100019.78
2022-10-07T11:43:57.054Z,100019.78
2022-10-07T11:46:29.078Z,100019.78
2022-10-07T11:49:19.661Z,100019.78
2022-10-07T11:52:02.540Z,100019.78
2022-10-07T11:54:38.903Z,100279.59
2022-10-07T11:57:06.817Z,100019.78
2022-10-07T11:59:42.466Z,100019.78
2022-10-07T12:02:32.710Z,100019.78
2022-10-07T12:05:01.884Z,100279.59
2022-10-07T12:07:35.177Z,100799.25
2022-10-07T12:10:03.382Z,100539.41
2022-10-07T12:12:43.018Z,100279.59
2022-10-07T12:15:45.162Z,100539.41
2022-10-07T12:18:17.309Z,100799.25
2022-10-07T12:20:51.074Z,100539.41
2022-10-07T12:23:25.985Z,100539.41
2022-10-07T12:26:31.171Z,100279.59
2022-10-07T12:29:05.753Z,100019.78
2022-10-07T12:31:33.092Z,100019.78
2022-10-07T12:34:08.717Z,99500.22
2022-10-07T12:36:41.137Z,99500.22
2022-10-07T12:39:09.786Z,99760.00
2022-10-07T12:41:40.423Z,99760.00
2022-10-07T12:44:48.933Z,99760.00
2022-10-07T12:47:25.444Z,100019.78
2022-10-07T12:49:59.035Z,100279.59
2022-10-07T12:52:54.785Z,100279.59
2022-10-07T12:55:39.607Z,100279.59
2022-10-07T12:58:53.947Z,100019.78
2022-10-07T13:01:47.212Z,100019.78
2022-10-07T13:04:28.286Z,100019.78
2022-10-07T13:06:58.740Z,99760.00
2022-10-07T13:09:54.593Z,100019.78
2022-10-07T13:12:26.144Z,100019.78
2022-10-07T13:14:56.608Z,99760.00
2022-10-07T13:17:51.387Z,99500.22
2022-10-07T13:20:37.438Z,99500.22
2022-10-07T13:23:12.195Z,100019.78
2022-10-07T13:25:45.635Z,99760.00
2022-10-07T13:28:14.986Z,99760.00
2022-10-07T13:30:44.206Z,99760.00
2022-10-07T13:33:25.005Z,99500.22
2022-10-07T13:36:06.193Z,99240.47
2022-10-07T13:38:34.865Z,99500.22
2022-10-07T13:41:22.997Z,99240.47
2022-10-07T13:43:54.398Z,99500.22
2022-10-07T13:46:30.409Z,99240.47
2022-10-07T13:49:01.369Z,99240.47
2022-10-07T13:51:31.429Z,98980.75
2022-10-07T13:54:01.836Z,98980.75
2022-10-07T13:56:40.480Z,98980.75
2022-10-07T13:59:18.370Z,98980.75
2022-10-07T14:01:53.133Z,98721.03
2022-10-07T14:04:28.628Z,98980.75
2022-10-07T14:07:21.406Z,98721.03
2022-10-07T14:10:08.771Z,98201.69
2022-10-07T14:12:47.305Z,98461.34
2022-10-07T14:15:15.933Z,98721.03
2022-10-07T14:17:47.576Z,98980.75
2022-10-07T14:20:30.621Z,98980.75
2022-10-07T14:23:05.971Z,99240.47
2022-10-07T14:25:54.149Z,99500.22
2022-10-07T14:28:24.505Z,99760.00
2022-10-07T14:31:36.515Z,99760.00
2022-10-07T14:34:37.180Z,99760.00
2022-10-07T14:37:32.146Z,99500.22
2022-10-07T14:39:59.618Z,99500.22
2022-10-07T14:42:36.217Z,99500.22
2022-10-07T14:45:08.356Z,99760.00
2022-10-07T14:47:39.213Z,99760.00
2022-10-07T14:50:07.484Z,99500.22
2022-10-07T14:52:44.936Z,98980.75
2022-10-07T14:55:20.907Z,98721.03
2022-10-07T14:57:48.598Z,98721.03
2022-10-07T15:00:25.503Z,98461.34
2022-10-07T15:02:54.633Z,98461.34
2022-10-07T15:05:23.493Z,98461.34
2022-10-07T15:07:51.495Z,98721.03
2022-10-07T15:10:23.225Z,98980.75
2022-10-07T15:12:51.444Z,98980.75
2022-10-07T15:15:19.486Z,98980.75
2022-10-07T15:17:48.458Z,98980.75
2022-10-07T15:20:16.892Z,98980.75
2022-10-07T15:22:45.846Z,98980.75
2022-10-07T15:25:15.416Z,99240.47
2022-10-07T15:27:43.287Z,99240.47
2022-10-07T15:30:11.945Z,99240.47
2022-10-07T15:32:40.694Z,99500.22
2022-10-07T15:35:10.760Z,100019.78
2022-10-07T15:37:39.427Z,100019.78
2022-10-07T15:40:07.887Z,100019.78
2022-10-07T15:42:35.720Z,100279.59
2022-10-07T15:45:03.895Z,100279.59
2022-10-07T15:47:34.499Z,100279.59
2022-10-07T15:50:02.031Z,100279.59
2022-10-07T15:52:30.448Z,100279.59
2022-10-07T15:54:57.930Z,100539.41
2022-10-07T15:57:25.369Z,102098.78
2022-10-07T15:59:54.739Z,104179.03
2022-10-07T16:02:22.450Z,105479.81
2022-10-07T16:04:50.182Z,106000.25
2022-10-07T16:07:17.627Z,106260.50
2022-10-07T16:09:46.122Z,106260.50
2022-10-07T16:12:13.614Z,106260.50
2022-10-07T16:14:41.068Z,106260.50
2022-10-07T16:17:09.371Z,105479.81
2022-10-07T16:19:36.710Z,105219.59
2022-10-07T16:22:04.290Z,104699.28
2022-10-07T16:24:35.472Z,104179.03
2022-10-07T16:27:02.961Z,105219.59
2022-10-07T16:29:52.048Z,107041.38
2022-10-07T16:32:19.466Z,108082.81
2022-10-07T16:34:47.038Z,108343.22
2022-10-07T16:37:15.890Z,108082.81
2022-10-07T16:39:45.484Z,107562.06
2022-10-07T16:42:13.188Z,107041.38
2022-10-07T16:44:41.824Z,106520.78
2022-10-07T16:47:09.152Z,106260.50
2022-10-07T16:49:36.972Z,106000.25
2022-10-07T16:52:06.865Z,105479.81
2022-10-07T16:54:37.439Z,105219.59
2022-10-07T16:57:04.916Z,104959.44
2022-10-07T16:59:32.485Z,104699.28
2022-10-07T17:02:05.001Z,104439.13
2022-10-07T17:04:32.452Z,104179.03
2022-10-07T17:07:06.001Z,103918.91
2022-10-07T17:09:35.542Z,103918.91
2022-10-07T17:12:06.868Z,103658.84
2022-10-07T17:14:38.675Z,103398.78
2022-10-07T17:17:07.857Z,103398.78
2022-10-07T17:19:37.866Z,103138.75
2022-10-07T17:22:05.492Z,103138.75
2022-10-07T17:24:33.099Z,102878.72
2022-10-07T17:27:00.614Z,102618.72
2022-10-07T17:29:29.632Z,102878.72
2022-10-07T17:31:59.483Z,102878.72
2022-10-07T17:34:26.913Z,102878.72
2022-10-07T17:36:54.530Z,102878.72
2022-10-07T17:39:21.886Z,102878.72
2022-10-07T17:41:49.458Z,102618.72
2022-10-07T17:44:21.488Z,102618.72
2022-10-07T17:46:49.310Z,102618.72
2022-10-07T17:49:16.698Z,102618.72
2022-10-07T17:51:44.242Z,102358.75
2022-10-07T17:54:13.716Z,102358.75
2022-10-07T17:56:47.608Z,102358.75
2022-10-07T17:59:16.719Z,102358.75
2022-10-07T18:01:45.051Z,102358.75
2022-10-07T18:04:18.853Z,102358.75
2022-10-07T18:06:48.875Z,102098.78
2022-10-07T18:09:18.807Z,102098.78
2022-10-07T18:12:05.424Z,102098.78
2022-10-07T18:14:54.144Z,102098.78
2022-10-07T18:17:23.345Z,102358.75
2022-10-07T18:20:04.095Z,102358.75
2022-10-07T18:22:35.764Z,102358.75
2022-10-07T18:25:04.682Z,102358.75
2022-10-07T18:27:32.130Z,102618.72
2022-10-07T18:30:02.283Z,103138.75
2022-10-07T18:32:29.746Z,103138.75
2022-10-07T18:34:59.249Z,103138.75
2022-10-07T18:37:29.167Z,102878.72
2022-10-07T18:39:56.504Z,102618.72
2022-10-07T18:42:24.011Z,102618.72
2022-10-07T18:44:52.392Z,102358.75
2022-10-07T18:47:20.206Z,102098.78
2022-10-07T18:49:51.859Z,102098.78
2022-10-07T18:52:19.600Z,101838.84
2022-10-07T18:54:49.085Z,101838.84
2022-10-07T18:57:22.143Z,101838.84
2022-10-07T18:59:50.720Z,101578.91
2022-10-07T19:02:21.535Z,101578.91
2022-10-07T19:04:48.842Z,101319.00
2022-10-07T19:07:16.484Z,101319.00
2022-10-07T19:09:43.726Z,101059.13
2022-10-07T19:12:31.248Z,100799.25
2022-10-07T19:14:59.887Z,100279.59
2022-10-07T19:17:27.256Z,100019.78
2022-10-07T19:19:54.671Z,100019.78
2022-10-07T19:22:22.213Z,100019.78
2022-10-07T19:25:08.195Z,100019.78
2022-10-07T19:27:37.932Z,100019.78
2022-10-07T19:30:06.359Z,99500.22
2022-10-07T19:32:33.891Z,99240.47
2022-10-07T19:35:01.335Z,99240.47
2022-10-07T19:37:28.716Z,99240.47
2022-10-07T19:39:56.054Z,99240.47
2022-10-07T19:42:24.314Z,99240.47
2022-10-07T19:45:21.765Z,98980.75
2022-10-07T19:48:28.998Z,98721.03
2022-10-07T19:51:12.137Z,98461.34
2022-10-07T19:53:46.691Z,98201.69
2022-10-07T19:56:20.257Z,98721.03
2022-10-07T19:58:52.270Z,98721.03
2022-10-07T20:01:22.820Z,98721.03
2022-10-07T20:03:57.200Z,98721.03
2022-10-07T20:06:25.615Z,98461.34
2022-10-07T20:08:54.006Z,98201.69
2022-10-07T20:11:24.248Z,97942.03
2022-10-07T20:13:53.628Z,97942.03
2022-10-07T20:16:26.956Z,97682.41
2022-10-07T20:19:02.040Z,97163.19
2022-10-07T20:21:31.666Z,96903.63
2022-10-07T20:24:01.613Z,96644.06
2022-10-07T20:26:31.546Z,96384.53
2022-10-07T20:29:00.869Z,96125.00
2022-10-07T20:31:34.035Z,96125.00
2022-10-07T20:34:02.809Z,96125.00
2022-10-07T20:36:38.522Z,95865.50
2022-10-07T20:39:34.685Z,95865.50
2022-10-07T20:42:25.742Z,95865.50
2022-10-07T20:44:53.564Z,95865.50
2022-10-07T20:47:28.093Z,95606.03
2022-10-07T20:49:57.936Z,95606.03
2022-10-07T20:52:27.813Z,95606.03
2022-10-07T20:54:55.338Z,95346.59
2022-10-07T20:57:38.033Z,95346.59
2022-10-07T21:00:16.113Z,95087.13
2022-10-07T21:02:44.576Z,95087.13
2022-10-07T21:05:12.512Z,94827.72
2022-10-07T21:07:42.770Z,94568.31
2022-10-07T21:10:10.166Z,94568.31
2022-10-07T21:12:40.516Z,94308.94
2022-10-07T21:15:08.851Z,94568.31
2022-10-07T21:17:44.384Z,94568.31
2022-10-07T21:20:11.878Z,94568.31
2022-10-07T21:22:39.197Z,94568.31
2022-10-07T21:25:07.334Z,94827.72
2022-10-07T21:27:34.819Z,94827.72
2022-10-07T21:30:05.301Z,94827.72
2022-10-07T21:32:32.595Z,94827.72
2022-10-07T21:35:00.477Z,94568.31
2022-10-07T21:37:29.651Z,94568.31
2022-10-07T21:40:02.638Z,94308.94
2022-10-07T21:42:29.962Z,94308.94
2022-10-07T21:44:57.966Z,94308.94
2022-10-07T21:47:27.697Z,94308.94
2022-10-07T21:49:57.216Z,94049.59
2022-10-07T21:52:24.788Z,93790.25
2022-10-07T21:54:52.544Z,93530.91
2022-10-07T21:57:20.248Z,93530.91
2022-10-07T21:59:51.137Z,93530.91
2022-10-07T22:02:18.663Z,93530.91
2022-10-07T22:04:48.796Z,93530.91
2022-10-07T22:07:34.546Z,93271.63
2022-10-07T22:10:01.926Z,93530.91
2022-10-07T22:12:29.496Z,93271.63
2022-10-07T22:14:56.810Z,93271.63
2022-10-07T22:17:26.730Z,93271.63
2022-10-07T22:19:54.267Z,93012.34
2022-10-07T22:22:21.589Z,93012.34
2022-10-07T22:24:51.230Z,93271.63
2022-10-07T22:27:22.167Z,93012.34
2022-10-07T22:29:49.543Z,92753.06
2022-10-07T22:32:17.058Z,92753.06
2022-10-07T22:35:03.241Z,93012.34
2022-10-07T22:37:30.627Z,93012.34
2022-10-07T22:39:58.247Z,92753.06
2022-10-07T22:42:25.590Z,92493.81
2022-10-07T22:44:53.050Z,92753.06
2022-10-07T22:47:20.696Z,92753.06
2022-10-07T22:49:48.581Z,92753.06
2022-10-07T22:52:18.639Z,92753.06
2022-10-07T22:54:49.481Z,92753.06
2022-10-07T22:57:19.177Z,92493.81
2022-10-07T22:59:49.174Z,92234.59
2022-10-07T23:02:16.634Z,92234.59
2022-10-07T23:04:46.724Z,92493.81
2022-10-07T23:07:14.624Z,92753.06
2022-10-07T23:09:42.120Z,92753.06
2022-10-07T23:12:10.015Z,93012.34
2022-10-07T23:14:37.657Z,92753.06
2022-10-07T23:17:05.366Z,92493.81
2022-10-07T23:19:32.919Z,92493.81
2022-10-07T23:22:00.306Z,92234.59
2022-10-07T23:24:28.754Z,92234.59
2022-10-07T23:26:56.111Z,92234.59
2022-10-07T23:29:26.656Z,92753.06
2022-10-07T23:31:54.174Z,92753.06
2022-10-07T23:34:21.487Z,93012.34
2022-10-07T23:36:49.001Z,93012.34
2022-10-07T23:39:16.342Z,93012.34
2022-10-07T23:41:43.689Z,93012.34
2022-10-07T23:44:11.239Z,93530.91
2022-10-07T23:46:39.721Z,93271.63
2022-10-07T23:49:07.255Z,93012.34
2022-10-07T23:51:35.841Z,93271.63
2022-10-07T23:54:04.129Z,93790.25
2022-10-07T23:56:32.646Z,93790.25
2022-10-07T23:59:01.818Z,93530.91
